To NAV CANADA Home Page Login to a new session Search on AWWS site Feedback and Comments Disclaimer Vers la page française équivalente Tips FAQ What's new on the site To the Forecasts and Observations / NOTAM section To "File a Flight Plan" website Publications and other links Update of the User's profile FIC Telephone Numbers My Weather Data Folder Route Weather Data Regional Weather Data Local Weather Data To the Forecasts and Observations / NOTAM section
Request Generated 05/25/2017 at 01:17:04 UTC . Weather information available at that time is displayed.

METAR/TAF

CALGARY INTL/AB    

METAR CYYC 250100Z 34029G44KT 4SM -RA SCT018 OVC040 07/05 A2942 RMK
SF4SC4 SLP980 DENSITY ALT 4000FT=
METAR CYYC 250000Z 34033G46KT 3SM -SHRA BR OVC025TCU 06/04 A2938 RMK
TCU8 SLP964 DENSITY ALT 4000FT=
METAR CYYC 242300Z 31022G39KT 3SM -SHRA BR OVC016TCU 03/02 A2935 RMK
TCU8 CIG VRB 012-020 SLP956=

TAF CYYC 242339Z 2500/2524 30025G40KT WS008/35085KT P6SM -RA SCT008
BKN020 TEMPO 2500/2502 30030G45KT 2SM SHRA BR OVC008
BECMG 2500/2502 33025G40KT
FM250200 34025G35KT WS006/35055KT P6SM -RA OVC012 TEMPO 2502/2506
2SM -RASN BR OVC012
FM250600 34025KT P6SM -SHRA BKN025 OVC110 TEMPO 2506/2509 3SM
-SNRA BR
FM250900 34025KT P6SM SCT015 BKN070
FM252100 34020KT P6SM -SHRA BKN015
RMK NXT FCST BY 250300Z=
Your time UTC time
Weather data provided by Environment Canada and NAV CANADA